Terminal Aerodrome Forecast
Issued by NWS

Home | Current Version | Previous Version | Graphics & Text | Print | Product List | Glossary On
Versions: 1 2 3 4 5 6 7 8 9 10 11 12 13 14 15 16
000
FTUS43 KMPX 231100 RRA
TAFRWF
TAF
KRWF 231141Z 2312/2412 01011G17KT 4SM BR OVC010
      TEMPO 2314/2316 OVC008
     FM231600 35013G20KT 3SM -SN BR OVC005
     FM240400 33014G20KT 4SM BR OVC006=

USA.gov is the U.S. government's official web portal to all federal, state and local government web resources and services.